createdAt,value
2019-04-01T00:01:41.559Z,3.57
2019-04-01T00:04:10.485Z,3.51
2019-04-01T00:06:38.903Z,3.54
2019-04-01T00:09:07.927Z,3.52
2019-04-01T00:11:36.359Z,3.52
2019-04-01T00:14:04.922Z,3.54
2019-04-01T00:16:33.382Z,3.46
2019-04-01T00:19:03.365Z,3.32
2019-04-01T00:21:32.527Z,3.19
2019-04-01T00:24:00.995Z,3.23
2019-04-01T00:26:29.413Z,3.19
2019-04-01T00:28:58.630Z,3.18
2019-04-01T00:31:27.087Z,3.16
2019-04-01T00:33:55.874Z,3.21
2019-04-01T00:36:25.110Z,3.23
2019-04-01T00:38:53.537Z,3.17
2019-04-01T00:41:21.994Z,3.21
2019-04-01T00:43:54.066Z,3.13
2019-04-01T00:46:23.067Z,3.09
2019-04-01T00:48:51.513Z,3.13
2019-04-01T00:51:19.944Z,3.05
2019-04-01T00:53:48.815Z,3.04
2019-04-01T00:56:17.256Z,3.03
2019-04-01T00:58:45.783Z,2.91
2019-04-01T01:01:14.359Z,2.92
2019-04-01T01:03:42.905Z,2.86
2019-04-01T01:06:11.342Z,2.84
2019-04-01T01:08:39.839Z,2.71
2019-04-01T01:11:11.224Z,2.69
2019-04-01T01:13:39.728Z,2.64
2019-04-01T01:16:08.476Z,2.58
2019-04-01T01:18:38.451Z,2.59
2019-04-01T01:21:09.247Z,2.43
2019-04-01T01:23:37.685Z,2.45
2019-04-01T01:26:06.206Z,2.46
2019-04-01T01:28:34.627Z,2.49
2019-04-01T01:31:03.103Z,2.50
2019-04-01T01:33:31.535Z,2.47
2019-04-01T01:35:59.974Z,2.47
2019-04-01T01:38:28.442Z,2.53
2019-04-01T01:40:56.854Z,2.51
2019-04-01T01:43:25.309Z,2.47
2019-04-01T01:45:54.705Z,2.29
2019-04-01T01:48:23.117Z,2.18
2019-04-01T01:50:51.546Z,2.07
2019-04-01T01:53:20.017Z,2.08
2019-04-01T01:55:48.450Z,2.00
2019-04-01T01:58:16.883Z,1.89
2019-04-01T02:00:45.336Z,1.76
2019-04-01T02:03:13.807Z,1.91
2019-04-01T02:05:42.226Z,1.93
2019-04-01T02:08:10.679Z,1.88
2019-04-01T02:10:39.120Z,1.84
2019-04-01T02:13:07.552Z,1.84
2019-04-01T02:15:36.026Z,1.84
2019-04-01T02:18:04.541Z,1.78
2019-04-01T02:20:33.026Z,1.83
2019-04-01T02:23:01.489Z,1.82
2019-04-01T02:25:29.940Z,1.85
2019-04-01T02:27:58.776Z,1.75
2019-04-01T02:30:27.219Z,1.74
2019-04-01T02:32:55.665Z,1.68
2019-04-01T02:35:24.102Z,1.73
2019-04-01T02:37:52.536Z,1.72
2019-04-01T02:40:22.104Z,1.76
2019-04-01T02:42:51.292Z,1.75
2019-04-01T02:45:19.703Z,1.81
2019-04-01T02:47:48.267Z,1.71
2019-04-01T02:50:16.741Z,1.54
2019-04-01T02:52:45.247Z,1.61
2019-04-01T02:55:13.687Z,1.56
2019-04-01T02:57:42.121Z,1.64
2019-04-01T03:00:10.942Z,1.54
2019-04-01T03:02:39.397Z,1.42
2019-04-01T03:05:08.065Z,1.38
2019-04-01T03:07:36.521Z,1.33
2019-04-01T03:10:06.748Z,1.34
2019-04-01T03:12:35.179Z,1.30
2019-04-01T03:15:04.739Z,1.33
2019-04-01T03:17:33.253Z,1.26
2019-04-01T03:20:01.749Z,1.20
2019-04-01T03:22:30.292Z,1.10
2019-04-01T03:24:58.687Z,1.07
2019-04-01T03:27:27.130Z,1.00
2019-04-01T03:29:55.595Z,0.91
2019-04-01T03:32:24.043Z,0.87
2019-04-01T03:34:52.620Z,0.90
2019-04-01T03:37:21.083Z,1.01
2019-04-01T03:39:49.517Z,0.95
2019-04-01T03:42:17.945Z,1.03
2019-04-01T03:44:46.507Z,1.07
2019-04-01T03:47:14.972Z,1.00
2019-04-01T03:49:43.403Z,0.98
2019-04-01T03:52:16.133Z,1.00
2019-04-01T03:54:44.560Z,0.80
2019-04-01T03:57:13.024Z,0.85
2019-04-01T03:59:41.500Z,0.84
2019-04-01T04:02:09.935Z,0.92
2019-04-01T04:04:38.356Z,0.85
2019-04-01T04:07:06.839Z,0.69
2019-04-01T04:09:35.353Z,0.70
2019-04-01T04:12:03.804Z,0.71
2019-04-01T04:14:32.247Z,0.70
2019-04-01T04:17:00.702Z,0.68
2019-04-01T04:19:29.149Z,0.56
2019-04-01T04:21:57.657Z,0.52
2019-04-01T04:24:26.101Z,0.55
2019-04-01T04:26:54.573Z,0.51
2019-04-01T04:29:23.066Z,0.66
2019-04-01T04:31:51.498Z,0.62
2019-04-01T04:34:19.939Z,0.59
2019-04-01T04:36:48.368Z,0.63
2019-04-01T04:39:16.834Z,0.66
2019-04-01T04:41:45.245Z,0.63
2019-04-01T04:44:13.704Z,0.60
2019-04-01T04:46:42.263Z,0.54
2019-04-01T04:49:10.661Z,0.60
2019-04-01T04:51:39.127Z,0.66
2019-04-01T04:54:07.550Z,0.61
2019-04-01T04:56:35.988Z,0.59
2019-04-01T04:59:04.443Z,0.65
2019-04-01T05:01:32.891Z,0.60
2019-04-01T05:04:01.392Z,0.48
2019-04-01T05:06:29.851Z,0.54
2019-04-01T05:08:58.282Z,0.53
2019-04-01T05:11:26.704Z,0.52
2019-04-01T05:13:57.048Z,0.62
2019-04-01T05:16:25.943Z,0.60
2019-04-01T05:18:54.409Z,0.60
2019-04-01T05:21:23.606Z,0.64
2019-04-01T05:23:53.567Z,0.63
2019-04-01T05:26:23.329Z,0.66
2019-04-01T05:28:53.856Z,0.69
2019-04-01T05:31:25.341Z,0.74
2019-04-01T05:33:56.008Z,0.71
2019-04-01T05:36:25.632Z,0.81
2019-04-01T05:38:54.238Z,0.81
2019-04-01T05:41:22.740Z,0.85
2019-04-01T05:43:51.612Z,0.88
2019-04-01T05:46:20.197Z,0.93
2019-04-01T05:48:48.787Z,0.97
2019-04-01T05:51:17.333Z,0.95
2019-04-01T05:53:47.085Z,0.99
2019-04-01T05:56:15.568Z,1.14
2019-04-01T05:58:44.240Z,1.22
2019-04-01T06:01:17.338Z,1.37
2019-04-01T06:03:45.781Z,1.55
2019-04-01T06:06:14.318Z,1.86
2019-04-01T06:08:42.741Z,2.38
2019-04-01T06:11:11.251Z,2.86
2019-04-01T06:13:39.786Z,3.20
2019-04-01T06:16:08.295Z,3.58
2019-04-01T06:18:36.795Z,4.02
2019-04-01T06:21:06.503Z,4.70
2019-04-01T06:23:35.025Z,5.20
2019-04-01T06:26:04.099Z,5.46
2019-04-01T06:28:32.553Z,5.63
2019-04-01T06:31:01.344Z,5.99
2019-04-01T06:33:29.891Z,6.35
2019-04-01T06:35:58.403Z,6.29
2019-04-01T06:38:26.896Z,6.68
2019-04-01T06:40:55.405Z,6.40
2019-04-01T06:43:23.875Z,6.67
2019-04-01T06:45:52.319Z,7.15
2019-04-01T06:48:20.925Z,7.03
2019-04-01T06:50:49.363Z,7.07
2019-04-01T06:53:17.860Z,6.82
2019-04-01T06:55:46.445Z,6.69
2019-04-01T06:58:14.875Z,6.19
2019-04-01T07:00:43.762Z,6.55
2019-04-01T07:03:12.635Z,6.45
2019-04-01T07:05:41.210Z,6.75
2019-04-01T07:08:10.535Z,6.29
2019-04-01T07:10:38.970Z,6.51
2019-04-01T07:13:07.400Z,6.53
2019-04-01T07:15:36.488Z,6.64
2019-04-01T07:18:05.087Z,6.84
2019-04-01T07:20:33.497Z,7.19
2019-04-01T07:23:02.491Z,7.16
2019-04-01T07:25:34.081Z,7.09
2019-04-01T07:28:01.537Z,7.13
2019-04-01T07:30:30.084Z,7.50
2019-04-01T07:32:58.497Z,7.83
2019-04-01T07:35:27.004Z,8.10
2019-04-01T07:37:55.529Z,7.91
2019-04-01T07:40:24.000Z,8.62
2019-04-01T07:42:53.430Z,8.96
2019-04-01T07:45:21.840Z,8.96
2019-04-01T07:47:51.748Z,8.64
2019-04-01T07:50:20.410Z,8.71
2019-04-01T07:52:49.255Z,9.04
2019-04-01T07:55:17.675Z,9.47
2019-04-01T07:57:46.219Z,9.41
2019-04-01T08:00:14.905Z,9.17
2019-04-01T08:02:43.409Z,9.80
2019-04-01T08:05:11.939Z,9.94
2019-04-01T08:07:40.411Z,9.90
2019-04-01T08:10:09.815Z,10.42
2019-04-01T08:12:38.486Z,11.02
2019-04-01T08:15:08.375Z,10.75
2019-04-01T08:17:36.950Z,10.60
2019-04-01T08:20:06.346Z,10.96
2019-04-01T08:22:35.076Z,11.63
2019-04-01T08:25:05.618Z,12.42
2019-04-01T08:27:34.087Z,13.10
2019-04-01T08:30:02.682Z,12.28
2019-04-01T08:32:31.241Z,12.06
2019-04-01T08:34:59.745Z,12.37
2019-04-01T08:37:28.262Z,11.23
2019-04-01T08:39:56.762Z,11.75
2019-04-01T08:42:25.304Z,11.12
2019-04-01T08:44:53.781Z,11.03
2019-04-01T08:47:22.315Z,11.03
2019-04-01T08:49:50.740Z,9.81
2019-04-01T08:52:19.181Z,9.28
2019-04-01T08:54:47.743Z,9.81
2019-04-01T08:57:16.265Z,10.12
2019-04-01T08:59:44.689Z,10.21
2019-04-01T09:02:18.277Z,9.80
2019-04-01T09:04:44.135Z,9.83
2019-04-01T09:07:12.568Z,9.27
2019-04-01T09:09:42.585Z,9.38
2019-04-01T09:12:11.756Z,9.49
2019-04-01T09:14:41.339Z,9.26
2019-04-01T09:17:09.790Z,9.28
2019-04-01T09:19:38.198Z,8.88
2019-04-01T09:22:06.727Z,8.87
2019-04-01T09:24:35.234Z,8.98
2019-04-01T09:27:03.720Z,9.01
2019-04-01T09:29:32.202Z,8.71
2019-04-01T09:32:00.614Z,9.05
2019-04-01T09:34:29.074Z,8.82
2019-04-01T09:36:57.513Z,8.87
2019-04-01T09:39:25.957Z,9.13
2019-04-01T09:41:54.416Z,8.97
2019-04-01T09:44:36.150Z,9.44
2019-04-01T09:46:53.103Z,9.17
2019-04-01T09:49:21.563Z,9.14
2019-04-01T09:51:50.003Z,8.94
2019-04-01T09:54:18.520Z,9.15
2019-04-01T09:56:47.062Z,9.14
2019-04-01T09:59:15.507Z,9.19
2019-04-01T10:01:44.026Z,9.37
2019-04-01T10:04:12.521Z,9.59
2019-04-01T10:06:40.964Z,9.29
2019-04-01T10:09:09.535Z,9.43
2019-04-01T10:11:38.036Z,9.31
2019-04-01T10:14:07.346Z,9.32
2019-04-01T10:16:35.794Z,9.42
2019-04-01T10:19:04.278Z,9.58
2019-04-01T10:21:32.739Z,9.04
2019-04-01T10:24:01.220Z,9.38
2019-04-01T10:26:29.657Z,9.54
2019-04-01T10:28:58.266Z,9.59
2019-04-01T10:31:26.702Z,9.76
2019-04-01T10:33:55.204Z,9.54
2019-04-01T10:36:23.665Z,9.61
2019-04-01T10:38:52.221Z,9.55
2019-04-01T10:41:20.704Z,9.28
2019-04-01T10:43:49.154Z,9.21
2019-04-01T10:46:17.583Z,9.31
2019-04-01T10:48:46.105Z,9.55
2019-04-01T10:51:14.570Z,9.55
2019-04-01T10:53:43.278Z,9.37
2019-04-01T10:56:11.944Z,9.46
2019-04-01T10:58:40.489Z,9.27
2019-04-01T11:01:08.978Z,9.66
2019-04-01T11:03:37.669Z,9.50
2019-04-01T11:06:06.097Z,9.80
2019-04-01T11:08:35.110Z,9.61
2019-04-01T11:11:03.624Z,9.70
2019-04-01T11:13:32.703Z,9.61
2019-04-01T11:16:01.175Z,9.62
2019-04-01T11:18:29.582Z,9.49
2019-04-01T11:20:58.056Z,9.59
2019-04-01T11:23:26.876Z,9.95
2019-04-01T11:25:55.290Z,9.67
2019-04-01T11:28:23.761Z,9.77
2019-04-01T11:30:52.184Z,9.77
2019-04-01T11:33:20.593Z,9.73
2019-04-01T11:35:49.185Z,9.66
2019-04-01T11:38:17.704Z,9.47
2019-04-01T11:40:46.237Z,9.86
2019-04-01T11:43:14.740Z,10.12
2019-04-01T11:45:43.229Z,9.91
2019-04-01T11:48:11.716Z,10.24
2019-04-01T11:50:40.258Z,10.00
2019-04-01T11:53:08.755Z,10.15
2019-04-01T11:55:37.307Z,9.99
2019-04-01T11:58:05.734Z,9.85
2019-04-01T12:00:34.361Z,9.85
2019-04-01T12:03:03.030Z,10.08
2019-04-01T12:05:31.530Z,10.13
2019-04-01T12:08:00.044Z,10.17
2019-04-01T12:10:28.590Z,10.34
2019-04-01T12:12:57.006Z,10.44
2019-04-01T12:15:25.819Z,10.39
2019-04-01T12:17:54.254Z,10.37
2019-04-01T12:20:22.777Z,10.38
2019-04-01T12:22:51.229Z,10.31
2019-04-01T12:25:19.650Z,10.42
2019-04-01T12:27:48.144Z,10.31
2019-04-01T12:30:16.766Z,10.37
2019-04-01T12:32:45.188Z,10.64
2019-04-01T12:35:13.727Z,10.40
2019-04-01T12:37:42.317Z,10.48
2019-04-01T12:40:11.538Z,10.42
2019-04-01T12:42:40.065Z,10.43
2019-04-01T12:45:10.387Z,10.48
2019-04-01T12:47:42.979Z,10.60
2019-04-01T12:50:09.825Z,10.55
2019-04-01T12:52:38.296Z,10.50
2019-04-01T12:55:08.279Z,10.47
2019-04-01T12:57:36.738Z,10.67
2019-04-01T13:00:08.852Z,10.80
2019-04-01T13:02:37.514Z,10.88
2019-04-01T13:05:07.581Z,10.81
2019-04-01T13:07:36.274Z,10.61
2019-04-01T13:10:07.488Z,10.71
2019-04-01T13:12:36.011Z,10.89
2019-04-01T13:15:05.137Z,11.03
2019-04-01T13:17:33.554Z,10.99
2019-04-01T13:20:02.079Z,10.96
2019-04-01T13:22:30.543Z,10.96
2019-04-01T13:24:59.038Z,11.01
2019-04-01T13:27:28.874Z,11.08
2019-04-01T13:29:57.400Z,11.05
2019-04-01T13:32:25.856Z,11.20
2019-04-01T13:34:54.314Z,10.93
2019-04-01T13:37:22.753Z,10.90
2019-04-01T13:39:51.238Z,10.92
2019-04-01T13:42:19.708Z,11.01
2019-04-01T13:44:48.134Z,11.01
2019-04-01T13:47:16.602Z,10.99
2019-04-01T13:49:45.022Z,11.21
2019-04-01T13:52:13.531Z,11.19
2019-04-01T13:54:42.145Z,11.18
2019-04-01T13:57:10.614Z,11.17
2019-04-01T13:59:49.217Z,11.24
2019-04-01T14:02:09.352Z,11.39
2019-04-01T14:04:37.801Z,11.37
2019-04-01T14:07:06.312Z,11.32
2019-04-01T14:09:34.773Z,11.51
2019-04-01T14:12:03.246Z,11.58
2019-04-01T14:14:31.662Z,11.41
2019-04-01T14:17:00.190Z,11.31
2019-04-01T14:19:28.615Z,11.34
2019-04-01T14:21:57.074Z,11.53
2019-04-01T14:24:25.625Z,11.58
2019-04-01T14:26:56.588Z,11.57
2019-04-01T14:29:24.316Z,11.46
2019-04-01T14:31:52.815Z,11.36
2019-04-01T14:34:23.186Z,11.43
2019-04-01T14:36:51.612Z,11.43
2019-04-01T14:39:20.372Z,11.53
2019-04-01T14:41:48.876Z,11.51
2019-04-01T14:44:17.813Z,11.46
2019-04-01T14:46:46.535Z,11.57
2019-04-01T14:49:15.172Z,11.57
2019-04-01T14:51:43.797Z,11.59
2019-04-01T14:54:12.556Z,11.59
2019-04-01T14:56:41.014Z,11.50
2019-04-01T14:59:09.485Z,11.40
2019-04-01T15:01:39.151Z,11.46
2019-04-01T15:04:07.657Z,11.74
2019-04-01T15:06:36.238Z,11.61
2019-04-01T15:09:07.093Z,11.46
2019-04-01T15:11:37.996Z,11.61
2019-04-01T15:14:08.523Z,11.48
2019-04-01T15:16:38.132Z,11.58
2019-04-01T15:19:06.834Z,11.65
2019-04-01T15:21:36.187Z,11.47
2019-04-01T15:24:04.963Z,11.40
2019-04-01T15:26:34.003Z,11.44
2019-04-01T15:29:04.221Z,11.60
2019-04-01T15:31:32.844Z,11.59
2019-04-01T15:34:01.587Z,11.51
2019-04-01T15:36:30.084Z,11.61
2019-04-01T15:38:58.961Z,11.55
2019-04-01T15:41:27.711Z,11.41
2019-04-01T15:43:56.228Z,11.25
2019-04-01T15:46:24.844Z,11.37
2019-04-01T15:48:53.401Z,11.36
2019-04-01T15:51:22.726Z,11.37
2019-04-01T15:53:51.294Z,11.39
2019-04-01T15:56:19.732Z,11.36
2019-04-01T15:58:50.745Z,11.36
2019-04-01T16:01:19.172Z,11.48
2019-04-01T16:03:48.009Z,11.42
2019-04-01T16:06:16.968Z,11.37
2019-04-01T16:08:45.582Z,11.29
2019-04-01T16:11:14.116Z,11.30
2019-04-01T16:13:43.192Z,11.29
2019-04-01T16:16:14.492Z,11.21
2019-04-01T16:18:42.491Z,11.25
2019-04-01T16:21:11.024Z,11.29
2019-04-01T16:23:39.784Z,11.27
2019-04-01T16:26:09.663Z,11.26
2019-04-01T16:28:38.552Z,11.23
2019-04-01T16:31:07.074Z,11.08
2019-04-01T16:33:37.249Z,11.09
2019-04-01T16:36:05.948Z,11.08
2019-04-01T16:38:34.716Z,11.03
2019-04-01T16:41:03.153Z,11.02
2019-04-01T16:43:31.675Z,10.94
2019-04-01T16:46:00.176Z,10.90
2019-04-01T16:48:28.717Z,10.97
2019-04-01T16:50:57.308Z,10.85
2019-04-01T16:53:26.110Z,10.84
2019-04-01T16:55:54.797Z,10.83
2019-04-01T16:58:23.423Z,10.76
2019-04-01T17:00:52.217Z,10.80
2019-04-01T17:03:21.894Z,10.75
2019-04-01T17:05:50.574Z,10.73
2019-04-01T17:08:19.768Z,10.76
2019-04-01T17:10:48.351Z,10.75
2019-04-01T17:13:16.935Z,10.57
2019-04-01T17:15:45.467Z,10.60
2019-04-01T17:18:14.125Z,10.61
2019-04-01T17:20:42.834Z,10.47
2019-04-01T17:23:11.284Z,10.38
2019-04-01T17:25:39.727Z,10.42
2019-04-01T17:28:08.286Z,10.36
2019-04-01T17:30:36.789Z,10.28
2019-04-01T17:33:08.201Z,10.27
2019-04-01T17:35:35.663Z,10.19
2019-04-01T17:38:04.101Z,10.14
2019-04-01T17:40:32.698Z,10.02
2019-04-01T17:43:01.195Z,9.86
2019-04-01T17:45:36.741Z,10.00
2019-04-01T17:48:06.329Z,9.97
2019-04-01T17:50:35.316Z,9.89
2019-04-01T17:53:05.951Z,9.85
2019-04-01T17:55:34.694Z,9.77
2019-04-01T17:58:03.274Z,9.78
2019-04-01T18:00:33.396Z,9.69
2019-04-01T18:03:01.913Z,9.64
2019-04-01T18:05:33.284Z,9.53
2019-04-01T18:08:01.777Z,9.54
2019-04-01T18:10:30.316Z,9.50
2019-04-01T18:12:58.924Z,9.45
2019-04-01T18:15:28.126Z,9.42
2019-04-01T18:17:56.701Z,9.39
2019-04-01T18:20:27.415Z,9.29
2019-04-01T18:22:56.232Z,9.29
2019-04-01T18:25:25.832Z,9.25
2019-04-01T18:27:54.827Z,9.19
2019-04-01T18:30:24.207Z,9.11
2019-04-01T18:32:55.211Z,8.98
2019-04-01T18:35:23.130Z,9.04
2019-04-01T18:37:52.248Z,8.94
2019-04-01T18:40:31.883Z,8.91
2019-04-01T18:42:52.100Z,8.80
2019-04-01T18:45:21.409Z,8.86
2019-04-01T18:47:51.043Z,8.80
2019-04-01T18:50:19.831Z,8.76
2019-04-01T18:52:48.771Z,8.68
2019-04-01T18:55:17.519Z,8.65
2019-04-01T18:57:46.473Z,8.62
2019-04-01T19:00:15.771Z,8.52
2019-04-01T19:02:44.270Z,8.50
2019-04-01T19:05:12.875Z,8.48
2019-04-01T19:07:41.996Z,8.43
2019-04-01T19:10:11.432Z,8.46
2019-04-01T19:12:40.348Z,8.43
2019-04-01T19:15:10.549Z,8.43
2019-04-01T19:17:39.248Z,8.34
2019-04-01T19:20:08.026Z,8.32
2019-04-01T19:22:53.582Z,8.33
2019-04-01T19:25:23.718Z,8.24
2019-04-01T19:27:53.650Z,8.19
2019-04-01T19:30:22.463Z,8.15
2019-04-01T19:32:52.483Z,8.11
2019-04-01T19:35:21.252Z,8.04
2019-04-01T19:37:49.716Z,7.97
2019-04-01T19:40:20.514Z,7.98
2019-04-01T19:42:48.966Z,8.01
2019-04-01T19:45:17.720Z,7.90
2019-04-01T19:47:46.591Z,7.88
2019-04-01T19:50:18.231Z,7.84
2019-04-01T19:52:45.990Z,7.85
2019-04-01T19:55:14.566Z,7.81
2019-04-01T19:57:43.374Z,7.74
2019-04-01T20:00:26.608Z,7.70
2019-04-01T20:02:43.150Z,7.67
2019-04-01T20:05:11.666Z,7.60
2019-04-01T20:07:40.287Z,7.60
2019-04-01T20:10:08.840Z,7.56
2019-04-01T20:12:37.277Z,7.48
2019-04-01T20:15:09.543Z,7.42
2019-04-01T20:17:39.157Z,7.48
2019-04-01T20:20:09.314Z,7.44
2019-04-01T20:22:37.756Z,7.42
2019-04-01T20:25:08.886Z,7.40
2019-04-01T20:27:37.480Z,7.33
2019-04-01T20:30:09.642Z,7.28
2019-04-01T20:32:38.242Z,7.25
2019-04-01T20:35:22.315Z,7.22
2019-04-01T20:37:39.358Z,7.16
2019-04-01T20:40:08.326Z,7.07
2019-04-01T20:42:36.960Z,6.98
2019-04-01T20:45:10.582Z,6.87
2019-04-01T20:47:37.818Z,6.85
2019-04-01T20:50:11.112Z,6.74
2019-04-01T20:52:39.628Z,6.73
2019-04-01T20:55:08.684Z,6.71
2019-04-01T20:57:37.692Z,6.76
2019-04-01T21:00:09.906Z,6.78
2019-04-01T21:02:38.621Z,6.70
2019-04-01T21:05:08.359Z,6.70
2019-04-01T21:07:37.165Z,6.62
2019-04-01T21:10:07.699Z,6.79
2019-04-01T21:12:37.266Z,6.75
2019-04-01T21:15:09.232Z,6.78
2019-04-01T21:17:37.729Z,6.76
2019-04-01T21:20:07.969Z,6.75
2019-04-01T21:22:36.924Z,6.77
2019-04-01T21:25:07.394Z,6.70
2019-04-01T21:27:36.045Z,6.77
2019-04-01T21:30:10.513Z,6.74
2019-04-01T21:32:39.409Z,6.66
2019-04-01T21:35:09.476Z,6.69
2019-04-01T21:37:38.542Z,6.78
2019-04-01T21:40:08.332Z,6.70
2019-04-01T21:42:37.592Z,6.66
2019-04-01T21:45:07.940Z,6.66
2019-04-01T21:47:36.483Z,6.62
2019-04-01T21:50:07.100Z,6.65
2019-04-01T21:52:35.663Z,6.67
2019-04-01T21:55:07.992Z,6.59
2019-04-01T21:57:36.512Z,6.54
2019-04-01T22:00:08.569Z,6.45
2019-04-01T22:02:37.028Z,6.52
2019-04-01T22:05:07.615Z,6.57
2019-04-01T22:07:38.124Z,6.47
2019-04-01T22:10:07.099Z,6.55
2019-04-01T22:12:35.664Z,6.51
2019-04-01T22:15:04.964Z,6.49
2019-04-01T22:17:34.102Z,6.37
2019-04-01T22:20:02.918Z,6.30
2019-04-01T22:22:31.532Z,6.32
2019-04-01T22:25:00.996Z,6.38
2019-04-01T22:27:30.012Z,6.33
2019-04-01T22:29:58.790Z,6.24
2019-04-01T22:32:27.477Z,6.24
2019-04-01T22:34:56.258Z,6.22
2019-04-01T22:37:27.560Z,6.18
2019-04-01T22:39:55.801Z,6.11
2019-04-01T22:42:24.555Z,6.09
2019-04-01T22:44:53.059Z,6.13
2019-04-01T22:47:24.223Z,6.04
2019-04-01T22:49:52.094Z,6.07
2019-04-01T22:52:20.549Z,5.97
2019-04-01T22:54:49.628Z,5.94
2019-04-01T22:57:18.441Z,5.84
2019-04-01T22:59:46.946Z,5.73
2019-04-01T23:02:15.433Z,5.79
2019-04-01T23:04:43.925Z,5.72
2019-04-01T23:07:12.611Z,5.67
2019-04-01T23:09:41.817Z,5.58
2019-04-01T23:12:10.920Z,5.63
2019-04-01T23:14:39.552Z,5.54
2019-04-01T23:17:09.215Z,5.53
2019-04-01T23:19:38.645Z,5.54
2019-04-01T23:22:07.066Z,5.56
2019-04-01T23:24:37.076Z,5.48
2019-04-01T23:27:05.696Z,5.46
2019-04-01T23:29:34.163Z,5.42
2019-04-01T23:32:02.579Z,5.33
2019-04-01T23:34:31.077Z,5.28
2019-04-01T23:36:59.508Z,5.30
2019-04-01T23:39:27.995Z,5.26
2019-04-01T23:41:56.457Z,5.19
2019-04-01T23:44:24.874Z,5.21
2019-04-01T23:46:53.375Z,5.16
2019-04-01T23:49:21.889Z,5.08
2019-04-01T23:51:50.379Z,5.06
2019-04-01T23:54:18.799Z,5.07
2019-04-01T23:56:47.275Z,5.07
2019-04-01T23:59:15.827Z,4.96
